METAR Data
IDs: Format: Raw Decoded Include TAF

Data at: 1300 UTC 20 Oct 2021

KPIA 201254Z 19006KT 10SM CLR 12/08 A3007 RMK AO2 SLP182 T01170083